Clarklake, MI (49234)

9:10 AM EDT on July 30, 2016 (GMT -0400)
Lake Columbia NW Bayview Shores | | Change Station

Elev 997 ft 42.10 °N, 84.31 °W | Updated 0 second ago

Heavy Rain
Heavy Rain Mist
64.8 °F
Feels Like 64.8 °F
N
0.0
Wind Variable Wind from East
Gusts 0.0 mph

Today
High -- | Low -- °F
--% Chance of Precip.
Yesterday
High -- | Low -- °F
Precip. -- in
Pressure 30.00 in
Visibility 2.0 miles
Clouds Scattered Clouds 900 ft
Mostly Cloudy 1600 ft
Overcast 2700 ft
Dew Point 64 °F
Humidity 98%
Rainfall 0.11 in
Snow Depth Not available.
6:29 AM 8:57 PM
Waning Crescent, 13% visible
SPECI KJXN 301306Z 02004KT 2SM +RA BR SCT009 BKN016 OVC027 18/17 A3000 RMK AO2 LTG DSNT E AND W P0012 T01780172
Pressure 30.00 in
Visibility 2.0 miles
Clouds Scattered Clouds 900 ft
Mostly Cloudy 1600 ft
Overcast 2700 ft
Dew Point 64 °F
Humidity 98%
Rainfall 0.11 in
Snow Depth Not available.
6:29 AM 8:57 PM
Waning Crescent, 13% visible
SPECI KJXN 301306Z 02004KT 2SM +RA BR SCT009 BKN016 OVC027 18/17 A3000 RMK AO2 LTG DSNT E AND W P0012 T01780172

10-Day Weather Forecast

Almanac

Astronomy

Jul. 30, 2016 Rise Set
Actual Time
Civil Twilight
Nautical Twilight
Astronomical Twilight
Moon
Length of Visible Light
Length of Day
Tomorrow will be .
, % of the Moon is Illuminated

Today's Extremes

State Highs State Lows

Community

WunderPhotos

Upload Photos

1,928,549 photos uploaded!

WunderBlog® & News

Nearby

Air Quality

  Air Quality AQ Index Pollutant
Not available.

Snow Depth

Station Depth Elevation

Earthquake Activity

City Distance Mag. Time & Date
Minimum magnitude displayed is 2.5.

Coastal Water Temperatures

Place Temperature

Stations

Nearby Weather Stations

Station Location Temp. Windchill Dew Point Humidity Wind Precip. Elev Updated Type
                   

Watches & Warnings

There are currently no watches in effect.